createdAt,value
2022-11-19T00:00:14.528Z,85.68
2022-11-19T00:01:14.515Z,85.64
2022-11-19T00:02:14.557Z,85.68
2022-11-19T00:03:14.491Z,85.64
2022-11-19T00:04:14.474Z,85.64
2022-11-19T00:05:14.460Z,85.68
2022-11-19T00:06:14.484Z,85.68
2022-11-19T00:07:14.498Z,85.68
2022-11-19T00:08:14.418Z,85.64
2022-11-19T00:09:14.422Z,85.68
2022-11-19T00:10:14.391Z,85.54
2022-11-19T00:11:14.387Z,85.58
2022-11-19T00:12:14.366Z,85.58
2022-11-19T00:13:14.352Z,85.54
2022-11-19T00:14:14.336Z,85.58
2022-11-19T00:15:14.326Z,85.64
2022-11-19T00:16:14.313Z,85.54
2022-11-19T00:17:14.300Z,85.58
2022-11-19T00:18:14.284Z,85.58
2022-11-19T00:19:14.274Z,85.54
2022-11-19T00:20:14.259Z,85.58
2022-11-19T00:21:14.250Z,85.58
2022-11-19T00:22:14.254Z,85.58
2022-11-19T00:23:14.223Z,85.68
2022-11-19T00:24:14.206Z,85.58
2022-11-19T00:25:14.188Z,85.58
2022-11-19T00:26:14.179Z,85.54
2022-11-19T00:27:14.165Z,85.58
2022-11-19T00:28:14.158Z,85.58
2022-11-19T00:29:17.896Z,85.58
2022-11-19T00:30:32.600Z,85.58
2022-11-19T00:31:15.141Z,85.58
2022-11-19T00:32:14.098Z,85.58
2022-11-19T00:33:14.088Z,85.47
2022-11-19T00:34:14.069Z,85.54
2022-11-19T00:35:14.064Z,85.44
2022-11-19T00:36:14.040Z,85.58
2022-11-19T00:37:14.025Z,85.47
2022-11-19T00:38:14.051Z,85.44
2022-11-19T00:39:14.003Z,85.47
2022-11-19T00:40:13.993Z,85.44
2022-11-19T00:41:13.982Z,85.47
2022-11-19T00:42:13.961Z,85.47
2022-11-19T00:43:13.955Z,85.44
2022-11-19T00:44:13.935Z,85.47
2022-11-19T00:45:13.919Z,85.44
2022-11-19T00:46:13.908Z,85.44
2022-11-19T00:47:13.889Z,85.44
2022-11-19T00:48:13.874Z,85.33
2022-11-19T00:49:13.868Z,85.44
2022-11-19T00:50:13.854Z,85.44
2022-11-19T00:51:13.840Z,85.44
2022-11-19T00:52:13.828Z,85.33
2022-11-19T00:53:13.814Z,85.47
2022-11-19T00:54:13.825Z,85.37
2022-11-19T00:55:13.792Z,85.44
2022-11-19T00:56:13.777Z,85.33
2022-11-19T00:57:13.760Z,85.47
2022-11-19T00:58:13.750Z,85.44
2022-11-19T00:59:13.735Z,85.33
2022-11-19T01:00:13.718Z,85.33
2022-11-19T01:01:13.796Z,85.47
2022-11-19T01:02:13.686Z,85.44
2022-11-19T01:03:13.678Z,85.44
2022-11-19T01:04:13.665Z,85.33
2022-11-19T01:05:13.651Z,85.47
2022-11-19T01:06:17.772Z,85.47
2022-11-19T01:07:13.681Z,85.33
2022-11-19T01:08:13.608Z,85.33
2022-11-19T01:09:13.601Z,85.37
2022-11-19T01:10:13.603Z,85.47
2022-11-19T01:11:13.567Z,85.33
2022-11-19T01:12:13.559Z,85.37
2022-11-19T01:13:13.541Z,85.37
2022-11-19T01:14:13.531Z,85.47
2022-11-19T01:15:13.518Z,85.47
2022-11-19T01:16:13.502Z,85.47
2022-11-19T01:17:13.483Z,85.58
2022-11-19T01:18:13.470Z,85.47
2022-11-19T01:19:13.458Z,85.47
2022-11-19T01:20:13.492Z,85.47
2022-11-19T01:21:13.454Z,85.58
2022-11-19T01:22:13.416Z,85.47
2022-11-19T01:23:13.406Z,85.58
2022-11-19T01:24:13.397Z,85.58
2022-11-19T01:25:13.379Z,85.58
2022-11-19T01:26:13.390Z,85.58
2022-11-19T01:27:13.350Z,85.68
2022-11-19T01:28:13.341Z,85.58
2022-11-19T01:29:13.329Z,85.68
2022-11-19T01:30:13.313Z,85.58
2022-11-19T01:31:13.302Z,85.58
2022-11-19T01:32:13.283Z,85.47
2022-11-19T01:33:13.269Z,85.68
2022-11-19T01:34:13.264Z,85.58
2022-11-19T01:35:13.241Z,85.58
2022-11-19T01:36:13.232Z,85.68
2022-11-19T01:37:13.216Z,85.68
2022-11-19T01:38:13.201Z,85.78
2022-11-19T01:39:13.188Z,85.89
2022-11-19T01:40:13.175Z,85.78
2022-11-19T01:41:13.160Z,85.78
2022-11-19T01:42:13.173Z,85.78
2022-11-19T01:43:13.137Z,85.89
2022-11-19T01:44:13.123Z,85.99
2022-11-19T01:45:13.105Z,85.99
2022-11-19T01:46:13.099Z,85.99
2022-11-19T01:47:13.080Z,85.99
2022-11-19T01:48:13.071Z,85.99
2022-11-19T01:49:13.059Z,85.99
2022-11-19T01:50:13.046Z,86.20
2022-11-19T01:51:13.027Z,86.20
2022-11-19T01:52:13.013Z,86.30
2022-11-19T01:53:13.002Z,86.41
2022-11-19T01:54:12.986Z,86.41
2022-11-19T01:55:12.973Z,86.41
2022-11-19T01:56:12.954Z,86.30
2022-11-19T01:57:12.943Z,86.41
2022-11-19T01:58:12.945Z,86.30
2022-11-19T01:59:12.914Z,86.41
2022-11-19T02:00:12.906Z,86.41
2022-11-19T02:01:12.926Z,86.51
2022-11-19T02:02:12.876Z,86.71
2022-11-19T02:03:12.858Z,86.71
2022-11-19T02:04:12.854Z,86.71
2022-11-19T02:05:12.831Z,86.71
2022-11-19T02:06:12.824Z,86.71
2022-11-19T02:07:12.814Z,86.82
2022-11-19T02:08:12.797Z,86.82
2022-11-19T02:09:12.782Z,86.71
2022-11-19T02:10:12.769Z,86.71
2022-11-19T02:11:12.755Z,86.61
2022-11-19T02:12:12.738Z,86.61
2022-11-19T02:13:12.725Z,86.82
2022-11-19T02:14:12.735Z,87.19
2022-11-19T02:15:12.706Z,87.85
2022-11-19T02:16:12.690Z,88.26
2022-11-19T02:17:12.669Z,88.26
2022-11-19T02:18:12.659Z,87.74
2022-11-19T02:19:12.644Z,87.85
2022-11-19T02:20:12.627Z,88.12
2022-11-19T02:21:12.608Z,88.06
2022-11-19T02:22:12.597Z,88.06
2022-11-19T02:23:12.586Z,87.95
2022-11-19T02:24:12.570Z,88.06
2022-11-19T02:25:12.556Z,87.95
2022-11-19T02:26:12.545Z,88.26
2022-11-19T02:27:12.529Z,88.74
2022-11-19T02:28:12.521Z,88.47
2022-11-19T02:29:12.507Z,88.16
2022-11-19T02:30:12.513Z,89.09
2022-11-19T02:31:12.478Z,89.15
2022-11-19T02:32:12.469Z,89.56
2022-11-19T02:33:12.451Z,89.50
2022-11-19T02:34:12.439Z,89.15
2022-11-19T02:35:12.424Z,89.25
2022-11-19T02:36:12.408Z,89.09
2022-11-19T02:37:12.398Z,88.95
2022-11-19T02:38:12.386Z,88.64
2022-11-19T02:39:12.364Z,89.29
2022-11-19T02:40:12.351Z,89.36
2022-11-19T02:41:12.335Z,89.77
2022-11-19T02:42:12.330Z,89.46
2022-11-19T02:43:12.310Z,89.05
2022-11-19T02:44:12.302Z,89.15
2022-11-19T02:45:12.338Z,88.84
2022-11-19T02:46:12.303Z,88.64
2022-11-19T02:47:12.261Z,88.64
2022-11-19T02:48:12.239Z,88.53
2022-11-19T02:49:12.225Z,88.53
2022-11-19T02:50:12.212Z,88.43
2022-11-19T02:51:12.199Z,88.64
2022-11-19T02:52:12.189Z,88.95
2022-11-19T02:53:12.175Z,88.95
2022-11-19T02:54:12.165Z,89.46
2022-11-19T02:55:12.145Z,89.15
2022-11-19T02:56:12.139Z,89.25
2022-11-19T02:57:12.121Z,89.05
2022-11-19T02:58:12.104Z,88.74
2022-11-19T02:59:12.094Z,89.56
2022-11-19T03:00:12.076Z,89.56
2022-11-19T03:01:12.120Z,89.46
2022-11-19T03:02:12.073Z,89.25
2022-11-19T03:03:12.039Z,89.05
2022-11-19T03:04:12.022Z,88.84
2022-11-19T03:05:12.004Z,88.32
2022-11-19T03:06:12.001Z,88.22
2022-11-19T03:07:11.997Z,88.12
2022-11-19T03:08:11.967Z,88.22
2022-11-19T03:09:11.952Z,88.12
2022-11-19T03:10:11.945Z,88.02
2022-11-19T03:11:11.924Z,87.71
2022-11-19T03:12:11.917Z,87.60
2022-11-19T03:13:11.901Z,87.50
2022-11-19T03:14:11.889Z,87.50
2022-11-19T03:15:11.870Z,87.40
2022-11-19T03:16:11.857Z,87.08
2022-11-19T03:17:11.843Z,86.88
2022-11-19T03:18:11.861Z,86.78
2022-11-19T03:19:11.818Z,86.82
2022-11-19T03:20:11.806Z,86.57
2022-11-19T03:21:11.786Z,86.47
2022-11-19T03:22:11.778Z,86.47
2022-11-19T03:23:11.761Z,86.47
2022-11-19T03:24:11.752Z,86.36
2022-11-19T03:25:11.738Z,86.26
2022-11-19T03:26:11.723Z,86.16
2022-11-19T03:27:11.708Z,86.20
2022-11-19T03:28:11.692Z,86.16
2022-11-19T03:29:11.680Z,86.16
2022-11-19T03:30:11.668Z,86.20
2022-11-19T03:31:11.657Z,86.16
2022-11-19T03:32:11.635Z,86.16
2022-11-19T03:33:11.619Z,86.10
2022-11-19T03:34:11.627Z,86.20
2022-11-19T03:35:11.595Z,86.05
2022-11-19T03:36:11.579Z,86.10
2022-11-19T03:37:11.564Z,86.10
2022-11-19T03:38:11.550Z,86.10
2022-11-19T03:39:11.537Z,86.10
2022-11-19T03:40:11.528Z,86.10
2022-11-19T03:41:11.513Z,85.99
2022-11-19T03:42:11.496Z,86.10
2022-11-19T03:43:11.493Z,85.89
2022-11-19T03:44:11.478Z,85.99
2022-11-19T03:45:11.463Z,85.89
2022-11-19T03:46:11.445Z,85.89
2022-11-19T03:47:11.442Z,85.89
2022-11-19T03:48:11.415Z,85.78
2022-11-19T03:49:11.400Z,85.75
2022-11-19T03:50:11.411Z,85.78
2022-11-19T03:51:11.372Z,85.68
2022-11-19T03:52:11.364Z,85.78
2022-11-19T03:53:11.350Z,85.78
2022-11-19T03:54:11.332Z,85.78
2022-11-19T03:55:11.328Z,85.78
2022-11-19T03:56:11.300Z,85.64
2022-11-19T03:57:11.287Z,85.68
2022-11-19T03:58:11.277Z,85.78
2022-11-19T03:59:11.264Z,85.68
2022-11-19T04:00:11.244Z,85.68
2022-11-19T04:01:11.236Z,85.68
2022-11-19T04:02:11.328Z,85.68
2022-11-19T04:03:11.203Z,85.68
2022-11-19T04:04:11.194Z,85.68
2022-11-19T04:05:11.180Z,85.68
2022-11-19T04:06:11.186Z,85.68
2022-11-19T04:07:11.224Z,85.68
2022-11-19T04:08:11.140Z,85.68
2022-11-19T04:09:11.124Z,85.58
2022-11-19T04:10:11.111Z,85.58
2022-11-19T04:11:36.633Z,85.58
2022-11-19T04:12:36.614Z,85.58
2022-11-19T04:13:36.605Z,85.58
2022-11-19T04:14:36.599Z,85.58
2022-11-19T04:15:36.574Z,85.58
2022-11-19T04:16:36.558Z,85.58
2022-11-19T04:17:36.545Z,85.58
2022-11-19T04:18:36.532Z,85.58
2022-11-19T04:19:36.524Z,85.47
2022-11-19T04:20:36.501Z,85.47
2022-11-19T04:21:36.509Z,85.47
2022-11-19T04:22:36.476Z,85.47
2022-11-19T04:23:36.466Z,85.47
2022-11-19T04:24:36.462Z,85.47
2022-11-19T04:25:36.445Z,85.37
2022-11-19T04:26:36.428Z,85.44
2022-11-19T04:27:36.407Z,85.37
2022-11-19T04:28:36.398Z,85.37
2022-11-19T04:29:36.385Z,85.37
2022-11-19T04:30:36.372Z,85.37
2022-11-19T04:31:36.360Z,85.37
2022-11-19T04:32:36.343Z,85.37
2022-11-19T04:33:36.335Z,85.33
2022-11-19T04:34:36.314Z,85.37
2022-11-19T04:35:36.302Z,85.33
2022-11-19T04:36:36.286Z,85.37
2022-11-19T04:37:36.301Z,85.37
2022-11-19T04:38:36.264Z,85.33
2022-11-19T04:39:36.261Z,85.27
2022-11-19T04:40:36.235Z,85.37
2022-11-19T04:41:36.226Z,85.23
2022-11-19T04:42:36.206Z,85.27
2022-11-19T04:43:36.192Z,85.23
2022-11-19T04:44:36.175Z,85.13
2022-11-19T04:45:36.169Z,85.23
2022-11-19T04:46:36.156Z,85.23
2022-11-19T04:47:36.135Z,85.13
2022-11-19T04:48:36.127Z,85.27
2022-11-19T04:49:36.117Z,85.27
2022-11-19T04:50:36.099Z,85.27
2022-11-19T04:51:36.087Z,85.27
2022-11-19T04:52:40.516Z,85.27
2022-11-19T04:53:36.075Z,85.27
2022-11-19T04:54:36.042Z,85.27
2022-11-19T04:55:36.027Z,85.27
2022-11-19T04:56:36.018Z,85.27
2022-11-19T04:57:36.011Z,85.27
2022-11-19T04:58:35.990Z,85.23
2022-11-19T04:59:35.972Z,85.23
2022-11-19T05:00:35.963Z,85.27
2022-11-19T05:01:35.984Z,85.17
2022-11-19T05:02:35.934Z,85.17
2022-11-19T05:03:35.926Z,85.27
2022-11-19T05:04:35.915Z,85.17
2022-11-19T05:05:35.897Z,85.17
2022-11-19T05:06:35.889Z,85.17
2022-11-19T05:07:35.923Z,85.17
2022-11-19T05:08:35.866Z,85.17
2022-11-19T05:09:35.868Z,85.17
2022-11-19T05:10:35.829Z,85.17
2022-11-19T05:11:35.808Z,85.17
2022-11-19T05:12:35.797Z,85.17
2022-11-19T05:13:35.786Z,85.17
2022-11-19T05:14:35.771Z,85.17
2022-11-19T05:15:35.757Z,85.17
2022-11-19T05:16:35.743Z,85.02
2022-11-19T05:17:35.732Z,85.17
2022-11-19T05:18:35.723Z,85.17
2022-11-19T05:19:35.709Z,85.06
2022-11-19T05:20:35.702Z,85.17
2022-11-19T05:21:35.679Z,85.06
2022-11-19T05:22:35.673Z,85.06
2022-11-19T05:23:35.661Z,85.06
2022-11-19T05:24:35.638Z,85.06
2022-11-19T05:25:35.647Z,85.02
2022-11-19T05:26:35.616Z,85.02
2022-11-19T05:27:35.594Z,85.06
2022-11-19T05:28:39.958Z,85.06
2022-11-19T05:29:35.569Z,85.06
2022-11-19T05:30:35.568Z,85.06
2022-11-19T05:31:35.541Z,85.06
2022-11-19T05:32:35.529Z,85.06
2022-11-19T05:33:35.520Z,85.06
2022-11-19T05:34:35.502Z,85.06
2022-11-19T05:35:35.484Z,85.06
2022-11-19T05:36:35.473Z,85.06
2022-11-19T05:37:35.459Z,85.06
2022-11-19T05:38:35.451Z,85.06
2022-11-19T05:39:35.432Z,85.06
2022-11-19T05:40:35.422Z,85.06
2022-11-19T05:41:35.427Z,85.06
2022-11-19T05:42:35.394Z,85.06
2022-11-19T05:43:35.380Z,85.06
2022-11-19T05:44:35.367Z,85.06
2022-11-19T05:45:35.357Z,85.06
2022-11-19T05:46:35.346Z,85.06
2022-11-19T05:47:35.326Z,85.06
2022-11-19T05:48:35.318Z,85.06
2022-11-19T05:49:35.297Z,85.06
2022-11-19T05:50:35.291Z,85.17
2022-11-19T05:51:35.275Z,85.06
2022-11-19T05:52:35.258Z,85.21
2022-11-19T05:53:35.240Z,85.10
2022-11-19T05:54:35.232Z,85.06
2022-11-19T05:55:35.216Z,85.21
2022-11-19T05:56:35.201Z,85.21
2022-11-19T05:57:35.286Z,85.10
2022-11-19T05:58:35.175Z,85.06
2022-11-19T05:59:38.422Z,85.06
2022-11-19T06:00:35.153Z,85.06
2022-11-19T06:01:35.139Z,85.06
2022-11-19T06:02:35.166Z,85.06
2022-11-19T06:03:35.110Z,85.06
2022-11-19T06:04:35.093Z,85.10
2022-11-19T06:05:40.009Z,85.06
2022-11-19T06:06:35.065Z,85.06
2022-11-19T06:07:35.143Z,85.10
2022-11-19T06:08:35.040Z,85.06
2022-11-19T06:09:35.026Z,85.10
2022-11-19T06:10:35.018Z,85.06
2022-11-19T06:11:35.006Z,85.06
2022-11-19T06:12:34.988Z,85.06
2022-11-19T06:13:35.000Z,85.06
2022-11-19T06:14:34.970Z,85.06
2022-11-19T06:15:34.942Z,84.96
2022-11-19T06:16:34.933Z,85.06
2022-11-19T06:17:34.915Z,84.96
2022-11-19T06:18:34.908Z,85.06
2022-11-19T06:19:34.884Z,85.06
2022-11-19T06:20:34.874Z,85.06
2022-11-19T06:21:34.860Z,85.10
2022-11-19T06:22:34.851Z,85.10
2022-11-19T06:23:34.840Z,84.96
2022-11-19T06:24:34.827Z,85.10
2022-11-19T06:25:34.811Z,85.06
2022-11-19T06:26:34.800Z,85.00
2022-11-19T06:27:34.784Z,85.00
2022-11-19T06:28:34.770Z,85.10
2022-11-19T06:29:34.781Z,85.10
2022-11-19T06:30:34.743Z,84.96
2022-11-19T06:31:34.726Z,85.06
2022-11-19T06:32:34.713Z,85.06
2022-11-19T06:33:34.700Z,84.96
2022-11-19T06:34:34.687Z,85.06
2022-11-19T06:35:34.679Z,85.10
2022-11-19T06:36:39.095Z,85.10
2022-11-19T06:37:35.676Z,85.10
2022-11-19T06:38:34.643Z,85.10
2022-11-19T06:39:34.618Z,85.10
2022-11-19T06:40:34.606Z,85.10
2022-11-19T06:41:34.593Z,85.10
2022-11-19T06:42:34.583Z,85.10
2022-11-19T06:43:34.565Z,85.00
2022-11-19T06:44:34.551Z,85.06
2022-11-19T06:45:34.574Z,85.10
2022-11-19T06:46:34.533Z,85.06
2022-11-19T06:47:34.513Z,85.10
2022-11-19T06:48:34.502Z,85.10
2022-11-19T06:49:34.484Z,85.10
2022-11-19T06:50:34.474Z,85.10
2022-11-19T06:51:34.460Z,84.96
2022-11-19T06:52:34.449Z,84.96
2022-11-19T06:53:34.439Z,85.00
2022-11-19T06:54:36.655Z,84.96
2022-11-19T06:55:34.402Z,85.00
2022-11-19T06:56:34.389Z,84.96
2022-11-19T06:57:34.374Z,84.96
2022-11-19T06:58:34.372Z,84.96
2022-11-19T06:59:34.349Z,84.86
2022-11-19T07:00:34.341Z,84.86
2022-11-19T07:01:34.440Z,84.86
2022-11-19T07:02:34.310Z,84.86
2022-11-19T07:03:34.301Z,84.81
2022-11-19T07:04:34.294Z,84.86
2022-11-19T07:05:34.279Z,84.86
2022-11-19T07:06:34.258Z,84.75
2022-11-19T07:07:34.300Z,84.86
2022-11-19T07:08:34.235Z,84.75
2022-11-19T07:09:34.218Z,84.75
2022-11-19T07:10:34.207Z,84.86
2022-11-19T07:11:34.184Z,84.72
2022-11-19T07:12:34.172Z,84.75
2022-11-19T07:13:34.162Z,84.72
2022-11-19T07:14:34.153Z,84.61
2022-11-19T07:15:34.130Z,84.72
2022-11-19T07:16:34.124Z,84.61
2022-11-19T07:17:34.140Z,84.61
2022-11-19T07:18:34.097Z,84.61
2022-11-19T07:19:34.093Z,84.61
2022-11-19T07:20:34.074Z,84.61
2022-11-19T07:21:34.053Z,84.61
2022-11-19T07:22:34.042Z,84.57
2022-11-19T07:23:34.027Z,84.51
2022-11-19T07:24:34.011Z,84.51
2022-11-19T07:25:33.996Z,84.47
2022-11-19T07:26:33.986Z,84.51
2022-11-19T07:27:33.968Z,84.51
2022-11-19T07:28:33.955Z,84.51
2022-11-19T07:29:33.948Z,84.47
2022-11-19T07:30:33.937Z,84.47
2022-11-19T07:31:33.921Z,84.51
2022-11-19T07:32:33.905Z,84.41
2022-11-19T07:33:33.914Z,84.41
2022-11-19T07:34:33.873Z,84.41
2022-11-19T07:35:33.870Z,84.41
2022-11-19T07:36:33.851Z,84.41
2022-11-19T07:37:33.835Z,84.41
2022-11-19T07:38:37.007Z,84.41
2022-11-19T07:39:33.806Z,84.36
2022-11-19T07:40:33.797Z,84.41
2022-11-19T07:41:33.779Z,84.36
2022-11-19T07:42:33.773Z,84.36
2022-11-19T07:43:33.756Z,84.41
2022-11-19T07:44:33.742Z,84.36
2022-11-19T07:45:33.730Z,84.36
2022-11-19T07:46:33.721Z,84.27
2022-11-19T07:47:33.701Z,84.27
2022-11-19T07:48:33.685Z,84.27
2022-11-19T07:49:33.699Z,84.27
2022-11-19T07:50:33.660Z,84.27
2022-11-19T07:51:33.645Z,84.27
2022-11-19T07:52:33.635Z,84.22
2022-11-19T07:53:33.621Z,84.12
2022-11-19T07:54:33.609Z,84.27
2022-11-19T07:55:33.597Z,84.12
2022-11-19T07:56:33.586Z,84.12
2022-11-19T07:57:33.570Z,84.12
2022-11-19T07:58:33.557Z,84.12
2022-11-19T07:59:33.544Z,84.16
2022-11-19T08:00:33.527Z,84.01
2022-11-19T08:01:33.563Z,84.12
2022-11-19T08:02:33.497Z,84.06
2022-11-19T08:03:33.488Z,84.01
2022-11-19T08:04:33.572Z,84.06
2022-11-19T08:05:33.541Z,84.06
2022-11-19T08:06:33.586Z,84.06
2022-11-19T08:07:33.698Z,84.01
2022-11-19T08:08:33.531Z,84.01
2022-11-19T08:09:33.487Z,84.01
2022-11-19T08:10:33.411Z,84.06
2022-11-19T08:11:33.381Z,84.01
2022-11-19T08:12:33.366Z,83.95
2022-11-19T08:13:33.350Z,83.91
2022-11-19T08:14:33.348Z,83.91
2022-11-19T08:15:33.335Z,83.91
2022-11-19T08:16:33.317Z,83.91
2022-11-19T08:17:33.300Z,83.91
2022-11-19T08:18:33.289Z,83.87
2022-11-19T08:19:33.285Z,84.01
2022-11-19T08:20:33.264Z,83.91
2022-11-19T08:21:33.271Z,83.95
2022-11-19T08:22:33.253Z,83.91
2022-11-19T08:23:33.223Z,84.01
2022-11-19T08:24:33.272Z,84.01
2022-11-19T08:25:33.213Z,83.91
2022-11-19T08:26:33.305Z,83.91
2022-11-19T08:27:33.362Z,84.01
2022-11-19T08:28:33.447Z,83.91
2022-11-19T08:29:33.283Z,83.91
2022-11-19T08:30:33.404Z,83.91
2022-11-19T08:31:33.304Z,83.81
2022-11-19T08:32:33.368Z,83.77
2022-11-19T08:33:33.333Z,83.91
2022-11-19T08:34:33.199Z,83.81
2022-11-19T08:35:33.387Z,83.81
2022-11-19T08:36:33.330Z,83.91
2022-11-19T08:37:33.403Z,83.81
2022-11-19T08:38:38.231Z,83.91
2022-11-19T08:39:33.205Z,84.01
2022-11-19T08:40:33.199Z,83.91
2022-11-19T08:41:33.311Z,83.81
2022-11-19T08:42:33.225Z,83.77
2022-11-19T08:43:32.959Z,83.77
2022-11-19T08:44:32.944Z,83.67
2022-11-19T08:45:32.931Z,83.63
2022-11-19T08:46:32.920Z,83.84
2022-11-19T08:47:32.905Z,83.53
2022-11-19T08:48:32.891Z,83.63
2022-11-19T08:49:32.873Z,83.53
2022-11-19T08:50:32.862Z,83.63
2022-11-19T08:51:32.851Z,83.70
2022-11-19T08:52:32.845Z,83.59
2022-11-19T08:53:32.853Z,83.59
2022-11-19T08:54:32.811Z,83.70
2022-11-19T08:55:32.802Z,83.80
2022-11-19T08:56:32.779Z,83.80
2022-11-19T08:57:32.775Z,83.80
2022-11-19T08:58:32.756Z,83.80
2022-11-19T08:59:32.737Z,83.80
2022-11-19T09:00:32.820Z,83.70
2022-11-19T09:01:32.711Z,83.70
2022-11-19T09:02:32.701Z,83.70
2022-11-19T09:03:32.685Z,84.00
2022-11-19T09:04:32.671Z,84.00
2022-11-19T09:05:32.664Z,83.90
2022-11-19T09:06:32.651Z,83.86
2022-11-19T09:07:32.726Z,84.11
2022-11-19T09:08:32.617Z,84.11
2022-11-19T09:09:32.629Z,84.11
2022-11-19T09:10:32.596Z,84.21
2022-11-19T09:11:32.581Z,84.31
2022-11-19T09:12:32.609Z,84.31
2022-11-19T09:13:32.556Z,84.31
2022-11-19T09:14:32.548Z,84.42
2022-11-19T09:15:32.533Z,84.52
2022-11-19T09:16:32.517Z,84.52
2022-11-19T09:17:32.503Z,84.52
2022-11-19T09:18:32.492Z,84.62
2022-11-19T09:19:32.473Z,85.24
2022-11-19T09:20:32.455Z,85.24
2022-11-19T09:21:32.440Z,85.17
2022-11-19T09:22:32.428Z,84.93
2022-11-19T09:23:32.415Z,85.24
2022-11-19T09:24:32.401Z,85.44
2022-11-19T09:25:32.410Z,85.14
2022-11-19T09:26:32.376Z,86.88
2022-11-19T09:27:32.363Z,86.99
2022-11-19T09:28:32.348Z,87.30
2022-11-19T09:29:32.338Z,86.47
2022-11-19T09:30:32.325Z,86.16
2022-11-19T09:31:32.314Z,85.86
2022-11-19T09:32:32.299Z,85.75
2022-11-19T09:33:32.288Z,85.41
2022-11-19T09:34:32.273Z,85.71
2022-11-19T09:35:32.259Z,86.13
2022-11-19T09:36:32.249Z,85.88
2022-11-19T09:37:32.226Z,87.46
2022-11-19T09:38:32.212Z,87.63
2022-11-19T09:39:32.209Z,87.05
2022-11-19T09:40:32.293Z,86.74
2022-11-19T09:41:32.201Z,86.46
2022-11-19T09:42:32.163Z,87.12
2022-11-19T09:43:32.164Z,87.01
2022-11-19T09:44:32.139Z,88.35
2022-11-19T09:45:32.134Z,89.22
2022-11-19T09:46:32.113Z,89.94
2022-11-19T09:47:32.094Z,90.08
2022-11-19T09:48:32.079Z,90.24
2022-11-19T09:49:32.073Z,90.28
2022-11-19T09:50:32.056Z,89.15
2022-11-19T09:51:32.045Z,89.36
2022-11-19T09:52:32.038Z,88.84
2022-11-19T09:53:32.025Z,87.77
2022-11-19T09:54:32.006Z,88.70
2022-11-19T09:55:31.995Z,89.01
2022-11-19T09:56:31.980Z,88.18
2022-11-19T09:57:31.988Z,88.18
2022-11-19T09:58:31.957Z,87.67
2022-11-19T09:59:31.937Z,87.98
2022-11-19T10:00:31.919Z,88.80
2022-11-19T10:01:31.915Z,89.11
2022-11-19T10:02:31.931Z,89.11
2022-11-19T10:03:33.873Z,88.08
2022-11-19T10:04:31.870Z,88.96
2022-11-19T10:05:31.859Z,90.81
2022-11-19T10:06:31.842Z,90.16
2022-11-19T10:07:31.873Z,89.34
2022-11-19T10:08:31.820Z,89.64
2022-11-19T10:09:31.815Z,90.67
2022-11-19T10:10:31.792Z,90.88
2022-11-19T10:11:31.787Z,91.08
2022-11-19T10:12:31.769Z,91.70
2022-11-19T10:13:31.779Z,90.57
2022-11-19T10:14:31.743Z,91.53
2022-11-19T10:15:37.140Z,91.60
2022-11-19T10:16:31.718Z,90.36
2022-11-19T10:17:31.700Z,90.88
2022-11-19T10:18:31.697Z,90.26
2022-11-19T10:19:31.681Z,89.40
2022-11-19T10:20:31.659Z,89.85
2022-11-19T10:21:31.643Z,92.32
2022-11-19T10:22:31.624Z,91.29
2022-11-19T10:23:31.613Z,90.12
2022-11-19T10:24:31.600Z,91.14
2022-11-19T10:25:31.585Z,90.42
2022-11-19T10:26:31.574Z,90.01
2022-11-19T10:27:31.563Z,88.74
2022-11-19T10:28:31.547Z,88.95
2022-11-19T10:29:31.555Z,89.87
2022-11-19T10:30:31.521Z,91.72
2022-11-19T10:31:31.508Z,91.20
2022-11-19T10:32:31.500Z,90.65
2022-11-19T10:33:31.483Z,89.72
2022-11-19T10:34:31.467Z,90.44
2022-11-19T10:35:31.648Z,90.95
2022-11-19T10:36:31.439Z,90.40
2022-11-19T10:37:31.425Z,90.30
2022-11-19T10:38:31.414Z,91.80
2022-11-19T10:39:31.398Z,91.28
2022-11-19T10:40:31.441Z,90.81
2022-11-19T10:41:31.383Z,90.40
2022-11-19T10:42:31.365Z,91.69
2022-11-19T10:43:31.346Z,92.61
2022-11-19T10:44:31.329Z,93.85
2022-11-19T10:45:31.343Z,95.18
2022-11-19T10:46:31.306Z,91.90
2022-11-19T10:47:31.289Z,94.46
2022-11-19T10:48:31.285Z,93.70
2022-11-19T10:49:31.263Z,94.77
2022-11-19T10:50:31.250Z,93.49
2022-11-19T10:51:31.246Z,94.62
2022-11-19T10:52:31.235Z,97.64
2022-11-19T10:53:31.217Z,95.90
2022-11-19T10:54:31.205Z,97.23
2022-11-19T10:55:31.197Z,97.13
2022-11-19T10:56:31.168Z,96.00
2022-11-19T10:57:31.160Z,95.49
2022-11-19T10:58:31.143Z,95.74
2022-11-19T10:59:31.137Z,96.00
2022-11-19T11:00:31.125Z,94.87
2022-11-19T11:01:31.246Z,94.98
2022-11-19T11:02:31.097Z,93.29
2022-11-19T11:03:31.078Z,92.57
2022-11-19T11:04:31.068Z,96.62
2022-11-19T11:05:31.056Z,96.51
2022-11-19T11:06:31.039Z,96.62
2022-11-19T11:07:31.258Z,95.23
2022-11-19T11:08:31.014Z,94.15
2022-11-19T11:09:30.999Z,95.39
2022-11-19T11:10:30.991Z,94.77
2022-11-19T11:11:30.969Z,93.74
2022-11-19T11:12:30.953Z,93.74
2022-11-19T11:13:30.940Z,92.97
2022-11-19T11:14:30.929Z,93.27
2022-11-19T11:15:30.927Z,92.82
2022-11-19T11:16:35.124Z,92.46
2022-11-19T11:17:31.939Z,92.61
2022-11-19T11:18:30.875Z,94.40
2022-11-19T11:19:30.867Z,92.04
2022-11-19T11:20:30.851Z,94.20
2022-11-19T11:21:30.841Z,93.59
2022-11-19T11:22:30.823Z,95.47
2022-11-19T11:23:30.817Z,95.57
2022-11-19T11:24:30.797Z,93.42
2022-11-19T11:25:30.785Z,93.46
2022-11-19T11:26:30.770Z,93.73
2022-11-19T11:27:30.755Z,93.36
2022-11-19T11:28:30.738Z,96.55
2022-11-19T11:29:30.729Z,96.44
2022-11-19T11:30:30.711Z,96.23
2022-11-19T11:31:30.698Z,93.30
2022-11-19T11:32:30.726Z,93.30
2022-11-19T11:33:30.693Z,93.51
2022-11-19T11:34:30.660Z,95.10
2022-11-19T11:35:30.651Z,94.84
2022-11-19T11:36:30.638Z,93.40
2022-11-19T11:37:30.625Z,93.30
2022-11-19T11:38:30.612Z,95.36
2022-11-19T11:39:30.597Z,94.02
2022-11-19T11:40:30.584Z,95.25
2022-11-19T11:42:04.284Z,94.64
2022-11-19T11:42:31.583Z,94.33
2022-11-19T11:43:30.543Z,94.43
2022-11-19T11:44:30.522Z,93.82
2022-11-19T11:45:30.514Z,96.75
2022-11-19T11:46:30.495Z,96.28
2022-11-19T11:47:30.485Z,94.64
2022-11-19T11:48:30.470Z,93.87
2022-11-19T11:49:30.482Z,94.18
2022-11-19T11:50:30.446Z,93.67
2022-11-19T11:51:30.439Z,92.60
2022-11-19T11:52:30.422Z,92.13
2022-11-19T11:53:30.410Z,93.63
2022-11-19T11:54:30.392Z,93.79
2022-11-19T11:55:30.380Z,96.97
2022-11-19T11:56:30.367Z,96.15
2022-11-19T11:57:30.357Z,95.98
2022-11-19T11:58:30.336Z,96.87
2022-11-19T11:59:30.332Z,96.25
2022-11-19T12:00:30.314Z,97.58
2022-11-19T12:01:30.302Z,97.28
2022-11-19T12:02:30.704Z,96.15
2022-11-19T12:03:30.276Z,95.74
2022-11-19T12:04:30.260Z,96.10
2022-11-19T12:05:30.270Z,97.79
2022-11-19T12:06:30.233Z,96.31
2022-11-19T12:07:30.276Z,94.98
2022-11-19T12:08:30.201Z,97.03
2022-11-19T12:09:30.188Z,97.49
2022-11-19T12:10:30.176Z,95.75
2022-11-19T12:11:30.167Z,96.17
2022-11-19T12:12:30.144Z,95.05
2022-11-19T12:13:30.141Z,97.40
2022-11-19T12:14:30.123Z,97.20
2022-11-19T12:15:30.120Z,95.15
2022-11-19T12:16:30.098Z,97.34
2022-11-19T12:17:30.089Z,98.42
2022-11-19T12:18:30.070Z,95.61
2022-11-19T12:19:30.058Z,97.70
2022-11-19T12:20:30.044Z,96.57
2022-11-19T12:21:30.074Z,97.44
2022-11-19T12:22:30.018Z,95.79
2022-11-19T12:23:30.005Z,94.98
2022-11-19T12:24:29.991Z,96.88
2022-11-19T12:25:29.977Z,95.07
2022-11-19T12:26:29.961Z,96.31
2022-11-19T12:27:29.952Z,97.23
2022-11-19T12:28:30.019Z,98.05
2022-11-19T12:29:29.948Z,96.72
2022-11-19T12:30:29.914Z,97.17
2022-11-19T12:31:30.311Z,97.33
2022-11-19T12:32:29.879Z,97.28
2022-11-19T12:33:29.870Z,95.90
2022-11-19T12:34:29.851Z,96.35
2022-11-19T12:35:29.842Z,97.13
2022-11-19T12:36:29.832Z,96.77
2022-11-19T12:37:29.837Z,97.13
2022-11-19T12:38:29.801Z,97.54
2022-11-19T12:39:29.792Z,98.16
2022-11-19T12:40:36.602Z,95.90
2022-11-19T12:41:30.794Z,97.58
2022-11-19T12:42:29.760Z,97.03
2022-11-19T12:43:29.750Z,97.23
2022-11-19T12:44:29.724Z,96.04
2022-11-19T12:45:29.711Z,97.28
2022-11-19T12:46:29.699Z,98.41
2022-11-19T12:47:29.685Z,97.13
2022-11-19T12:48:29.667Z,98.25
2022-11-19T12:49:29.653Z,97.38
2022-11-19T12:50:29.644Z,96.97
2022-11-19T12:51:29.626Z,96.66
2022-11-19T12:52:29.610Z,96.77